Bessemer, Alabama
Current Conditions -  °F | °C
As of 9:53 PM on Friday 24 Oct 2014 (Local Time) from KBHM Reporting Station
Clear Clear  
Wind Chill: 52°   Ceiling: Unl
Heat Index: 52°   Visibility: 10mi
Dew Point: 44°   Wind: 0mph
Humidity: 74%   Direction: NA
Pressure: 30.1"   Gusts: NA
Location:  33.4°N, 86.95°W
Report Text: KBHM 250253Z 00000KT 10SM CLR 11/07 A3010 RMK AO2 SLP191 T01110067 51012
Loading
Personal Weather Stations






























Interactive Weather Map New forecast layout! Learn more

10-Day Weather Forecast

Advertisements
Track Severe Weather on mobile